Impacts METAR Board
IDs:

KSEA - Seattle-Tacoma Intl, WA, US

Updated at: 0800 UTC 19 Jun 2018
Potential Impact None Slight Moderate High
Time 18/20Z 18/21Z 18/22Z 18/23Z 19/00Z 19/01Z 19/02Z 19/03Z 19/04Z 19/05Z 19/06Z 19/07Z 19/08Z
Temp83 83 84 86 86 86 84 79 72 68 66 63 61
Dewpt52 53 53 52 51 53 57 57 56 55 54 54 54
Altim29.96 29.95 29.95 29.95 29.95 29.94 29.94 29.96 29.98 30.00 30.02 30.04 30.04
VIS10 10 10 10 10 10 10 10 10 10 10 10 10
CIG-- -- -- -- 250 250 250 250 250 250 -- 150 150
CoverSCTSCTSCTSCTBKNBKNBKNBKNBKNBKNSCTBKNBKN
FltCatVFRVFRVFRVFRVFRVFRVFRVFRVFRVFRVFRVFRVFR
WX--------------------------
WDir2802800220210200240240190210200210200
WSpd7 7 3 8 8 6 11 7 9 9 7 11 10
WGst-- -- -- -- -- -- -- -- -- -- -- -- --
Raw hourly METARs
KSEA 181953Z 28007KT 10SM FEW050 SCT250 28/11 A2996 RMK AO2 SLP148 T02830111
KSEA 182053Z 28007KT 10SM FEW050 SCT250 28/12 A2995 RMK AO2 SLP146 T02830117 58004
KSEA 182153Z VRB03KT 10SM FEW050 SCT250 29/12 A2995 RMK AO2 SLP146 T02890117
KSEA 182253Z 22008KT 10SM FEW050 SCT250 30/11 A2995 RMK AO2 SLP145 T03000111
KSEA 182353Z 21008KT 10SM FEW050 BKN250 30/11 A2995 RMK AO2 SLP144 T03000106 10306 20239 58003
KSEA 190053Z 20006KT 10SM FEW050 BKN250 30/12 A2994 RMK AO2 SLP143 T03000117
KSEA 190153Z 24011KT 10SM FEW050 BKN250 29/14 A2994 RMK AO2 SLP143 T02890139
KSEA 190253Z 24007KT 10SM FEW120 BKN250 26/14 A2996 RMK AO2 SLP150 T02610139 53006
KSEA 190353Z 19009KT 10SM FEW120 BKN250 22/13 A2998 RMK AO2 SLP156 T02220133
KSEA 190453Z 21009KT 10SM SCT150 BKN250 20/13 A3000 RMK AO2 SLP163 T02000128
KSEA 190553Z 20007KT 10SM FEW150 SCT250 19/12 A3002 RMK AO2 SLP170 T01890122 10306 20189 52020
KSEA 190653Z 21011KT 10SM BKN150 BKN250 17/12 A3004 RMK AO2 SLP176 T01720122
KSEA 190753Z 20010KT 10SM BKN150 BKN250 16/12 A3004 RMK AO2 SLP176 T01610122 403060161



Page loaded:  08:53 UTC  |   01:53 AM Pacific  |   02:53 AM Mountain  |   03:53 AM Central  |   04:53 AM Eastern

 

ADVISORIES

FORECASTS

FORECASTS

OBSERVATIONS

USER TOOLS

ABOUT US